Time;durP1;ratioP1;P1;durP2;ratioP2;P2;SDS_P1;SDS_P2;PMS_P1;PMS_P2;Temp;Humidity;BMP_temperature;BMP_pressure;BME280_temperature;BME280_humidity;BME280_pressure;Samples;Min_cycle;Max_cycle;Signal;HPM_P1;HPM_P2
2021/12/26 00:00:34;;;;;;;3.83;2.07;;;10.70;99.90;;;;;;5052017;28;20584;-68
2021/12/26 00:03:01;;;;;;;5.33;2.60;;;10.70;99.90;;;;;;5044885;28;20184;-68
2021/12/26 00:05:29;;;;;;;4.87;2.50;;;10.70;99.90;;;;;;5044609;28;20302;-68
2021/12/26 00:07:55;;;;;;;3.03;2.40;;;10.70;99.90;;;;;;5036523;28;20264;-69
2021/12/26 00:10:25;;;;;;;5.93;2.97;;;10.70;99.90;;;;;;5060212;28;20188;-69
2021/12/26 00:12:52;;;;;;;3.73;2.70;;;10.70;99.90;;;;;;5055154;28;20191;-69
2021/12/26 00:15:20;;;;;;;4.30;2.30;;;10.70;99.90;;;;;;5042026;28;20731;-68
2021/12/26 00:17:46;;;;;;;3.57;2.20;;;10.70;99.90;;;;;;5057881;28;20204;-70
2021/12/26 00:20:13;;;;;;;4.27;2.87;;;10.60;99.90;;;;;;5039115;28;20715;-68
2021/12/26 00:22:41;;;;;;;4.10;2.53;;;10.60;99.90;;;;;;5052436;28;20188;-70
2021/12/26 00:25:09;;;;;;;7.93;2.63;;;10.60;99.90;;;;;;5041889;28;20230;-70
2021/12/26 00:27:36;;;;;;;3.87;2.30;;;10.60;99.90;;;;;;5023751;28;20212;-69
2021/12/26 00:30:10;;;;;;;5.40;2.27;;;10.60;99.90;;;;;;5043492;28;20215;-69
2021/12/26 00:32:37;;;;;;;2.70;2.23;;;10.60;99.90;;;;;;5032733;28;20192;-68
2021/12/26 00:35:04;;;;;;;3.60;2.20;;;10.60;99.90;;;;;;5037205;28;20267;-70
2021/12/26 00:37:30;;;;;;;3.80;2.60;;;10.60;99.90;;;;;;5046229;28;20952;-69
2021/12/26 00:39:57;;;;;;;4.00;2.07;;;10.60;99.90;;;;;;5049511;28;20293;-69
2021/12/26 00:42:23;;;;;;;4.57;2.70;;;10.60;99.90;;;;;;5049371;28;20195;-70
2021/12/26 00:44:50;;;;;;;2.70;2.20;;;10.60;99.90;;;;;;5068569;28;20628;-69
2021/12/26 00:47:16;;;;;;;3.67;2.40;;;10.60;99.90;;;;;;5061329;28;20249;-68
2021/12/26 00:49:43;;;;;;;4.93;2.80;;;10.60;99.90;;;;;;5061545;28;20482;-70
2021/12/26 00:52:09;;;;;;;5.40;2.30;;;10.60;99.90;;;;;;5061532;28;20215;-69
2021/12/26 00:54:36;;;;;;;3.03;2.53;;;10.70;99.90;;;;;;5046692;28;20187;-70
2021/12/26 00:57:04;;;;;;;5.03;2.20;;;10.70;99.90;;;;;;5062572;28;20195;-70
2021/12/26 00:59:31;;;;;;;3.73;2.47;;;10.70;99.90;;;;;;5050446;28;20903;-69
2021/12/26 01:01:57;;;;;;;5.73;2.27;;;10.70;99.90;;;;;;5052470;28;20226;-68
2021/12/26 01:04:24;;;;;;;2.43;2.23;;;10.60;99.90;;;;;;5042283;28;20207;-69
2021/12/26 01:06:52;;;;;;;2.57;2.20;;;10.60;99.90;;;;;;5045345;28;20291;-70
2021/12/26 01:09:23;;;;;;;2.47;2.07;;;10.60;99.90;;;;;;5044863;28;20234;-69
2021/12/26 01:11:54;;;;;;;4.30;2.60;;;10.60;99.90;;;;;;5059086;28;20203;-68
2021/12/26 01:14:27;;;;;;;3.47;2.30;;;10.60;99.90;;;;;;5051915;28;20192;-70
2021/12/26 01:17:05;;;;;;;5.13;2.40;;;10.50;99.90;;;;;;5054505;28;20191;-70
2021/12/26 01:19:41;;;;;;;7.37;2.27;;;10.50;99.90;;;;;;5061691;28;20911;-70
2021/12/26 01:22:09;;;;;;;3.23;2.20;;;10.50;99.90;;;;;;5058860;28;20292;-69
2021/12/26 01:24:35;;;;;;;4.33;2.20;;;10.40;99.90;;;;;;5048202;28;20717;-69
2021/12/26 01:27:03;;;;;;;6.27;2.53;;;10.40;99.90;;;;;;5029192;28;20195;-69
2021/12/26 01:29:29;;;;;;;5.53;2.30;;;10.40;99.90;;;;;;5046612;28;20238;-70
2021/12/26 01:31:56;;;;;;;4.30;2.23;;;10.40;99.90;;;;;;5056445;28;20202;-69
2021/12/26 01:34:23;;;;;;;3.07;2.27;;;10.40;99.90;;;;;;5033562;28;20270;-68
2021/12/26 01:36:49;;;;;;;2.57;1.93;;;10.40;99.90;;;;;;5052906;28;20202;-68
2021/12/26 01:39:16;;;;;;;3.90;2.20;;;10.40;99.90;;;;;;5057216;28;20196;-69
2021/12/26 01:41:44;;;;;;;3.03;2.20;;;10.40;99.90;;;;;;5062250;28;20736;-67
2021/12/26 01:44:14;;;;;;;4.80;1.90;;;10.40;99.90;;;;;;5039971;28;20238;-69
2021/12/26 01:46:43;;;;;;;2.67;2.47;;;10.40;99.90;;;;;;5044555;28;20180;-69
2021/12/26 01:49:19;;;;;;;4.87;2.07;;;10.40;99.90;;;;;;5048665;28;20184;-68
2021/12/26 01:51:48;;;;;;;3.07;2.00;;;10.40;99.90;;;;;;5058088;28;20571;-71
2021/12/26 01:54:29;;;;;;;4.93;2.40;;;10.40;99.90;;;;;;5046582;28;20717;-70
2021/12/26 01:56:57;;;;;;;4.27;2.00;;;10.50;99.90;;;;;;5039194;28;20195;-69
2021/12/26 01:59:24;;;;;;;2.70;2.23;;;10.50;99.90;;;;;;5042895;28;20544;-71
2021/12/26 02:01:50;;;;;;;2.70;2.07;;;10.50;99.90;;;;;;5040983;28;20596;-71
2021/12/26 02:04:17;;;;;;;4.32;2.17;;;10.50;99.90;;;;;;5055658;28;20457;-72
2021/12/26 02:06:44;;;;;;;2.00;1.70;;;10.60;99.90;;;;;;5048122;28;20196;-71
2021/12/26 02:09:12;;;;;;;2.60;2.00;;;10.60;99.90;;;;;;5043126;28;20223;-71
2021/12/26 02:11:42;;;;;;;3.47;2.00;;;10.60;99.90;;;;;;5044532;28;20636;-72
2021/12/26 02:14:08;;;;;;;2.77;2.23;;;10.60;99.90;;;;;;5061208;28;20513;-71
2021/12/26 02:16:35;;;;;;;2.53;1.70;;;10.60;99.90;;;;;;5053912;28;20230;-72
2021/12/26 02:19:02;;;;;;;2.93;2.03;;;10.70;99.90;;;;;;5038531;28;20188;-73
2021/12/26 02:24:14;;;;;;;7.90;2.00;;;10.70;99.90;;;;;;5062016;28;20641;-72
2021/12/26 02:29:26;;;;;;;2.63;1.70;;;10.80;99.90;;;;;;5059038;28;20203;-71
2021/12/26 02:31:53;;;;;;;2.97;1.90;;;10.80;99.90;;;;;;5033505;28;20208;-72
2021/12/26 02:34:20;;;;;;;2.83;2.00;;;10.80;99.90;;;;;;5041225;28;20971;-73
2021/12/26 02:36:46;;;;;;;2.93;1.97;;;10.80;99.90;;;;;;5061816;28;20223;-67
2021/12/26 02:39:15;;;;;;;2.90;1.80;;;10.80;99.90;;;;;;5044660;28;20199;-66
2021/12/26 02:41:43;;;;;;;4.73;1.80;;;10.80;99.90;;;;;;5047781;28;20575;-67
2021/12/26 02:44:10;;;;;;;3.80;2.00;;;10.80;99.90;;;;;;5043622;28;20187;-68
2021/12/26 02:46:36;;;;;;;4.57;2.07;;;10.80;99.90;;;;;;5064397;28;20206;-68
2021/12/26 02:49:03;;;;;;;3.03;2.03;;;10.80;99.90;;;;;;5053911;28;20211;-67
2021/12/26 02:51:29;;;;;;;6.83;1.93;;;10.80;99.90;;;;;;5047861;28;20658;-68
2021/12/26 02:53:55;;;;;;;1.87;1.67;;;10.90;99.90;;;;;;5045131;28;20651;-68
2021/12/26 02:56:22;;;;;;;2.80;1.63;;;10.90;99.90;;;;;;5054858;28;20249;-67
2021/12/26 02:58:48;;;;;;;3.50;1.80;;;10.90;99.90;;;;;;5057077;28;20187;-71
2021/12/26 03:01:29;;;;;;;2.90;1.63;;;10.90;99.90;;;;;;5064060;28;20245;-71
2021/12/26 03:03:55;;;;;;;3.57;1.70;;;10.90;99.90;;;;;;5033920;28;20202;-70
2021/12/26 03:06:36;;;;;;;2.47;1.70;;;10.90;99.90;;;;;;5058814;28;20662;-71
2021/12/26 03:09:05;;;;;;;2.10;1.60;;;10.90;99.90;;;;;;5039956;28;20191;-70
2021/12/26 03:11:32;;;;;;;2.57;1.40;;;10.90;99.90;;;;;;5044421;28;20187;-69
2021/12/26 03:14:00;;;;;;;3.93;1.70;;;10.90;99.90;;;;;;5059433;28;20711;-66
2021/12/26 03:16:27;;;;;;;2.63;1.73;;;10.90;99.90;;;;;;5061863;28;20221;-66
2021/12/26 03:18:59;;;;;;;2.07;1.70;;;10.90;99.90;;;;;;5069252;28;20651;-68
2021/12/26 03:21:26;;;;;;;2.67;1.80;;;11.00;99.90;;;;;;5037352;28;20945;-67
2021/12/26 03:23:52;;;;;;;2.07;1.70;;;11.00;99.90;;;;;;5047320;28;20195;-67
2021/12/26 03:26:18;;;;;;;3.17;1.80;;;11.00;99.90;;;;;;5046154;28;20214;-67
2021/12/26 03:28:45;;;;;;;3.53;1.73;;;11.00;99.90;;;;;;5059789;28;20194;-66
2021/12/26 03:31:11;;;;;;;3.33;1.60;;;11.00;99.90;;;;;;5039755;28;20206;-65
2021/12/26 03:33:39;;;;;;;2.83;1.50;;;11.00;99.90;;;;;;5038535;28;20223;-67
2021/12/26 03:36:06;;;;;;;3.67;1.60;;;11.10;99.90;;;;;;5039955;28;20695;-65
2021/12/26 03:38:33;;;;;;;2.87;1.60;;;11.10;99.90;;;;;;5043534;28;20203;-67
2021/12/26 03:40:59;;;;;;;4.40;1.77;;;11.10;99.90;;;;;;5060854;28;20268;-66
2021/12/26 03:43:26;;;;;;;2.70;1.50;;;11.10;99.90;;;;;;5061757;28;20301;-66
2021/12/26 03:45:54;;;;;;;2.80;1.50;;;11.10;99.90;;;;;;5051692;28;20180;-66
2021/12/26 03:48:25;;;;;;;1.90;1.47;;;11.00;99.90;;;;;;5045758;28;20206;-67
2021/12/26 03:50:53;;;;;;;3.17;1.70;;;11.10;99.90;;;;;;5041503;28;20679;-67
2021/12/26 03:53:20;;;;;;;5.97;1.90;;;11.10;99.90;;;;;;5049763;28;20757;-66
2021/12/26 03:55:50;;;;;;;2.30;1.73;;;11.10;99.90;;;;;;5040041;28;20184;-66
2021/12/26 03:58:18;;;;;;;2.37;1.70;;;11.10;99.90;;;;;;5046972;28;20206;-67
2021/12/26 04:00:46;;;;;;;3.03;1.50;;;11.10;99.90;;;;;;5047366;28;20261;-68
2021/12/26 04:03:13;;;;;;;4.17;1.80;;;11.10;99.90;;;;;;5045634;28;20192;-68
2021/12/26 04:05:39;;;;;;;1.60;1.40;;;11.10;99.90;;;;;;5050558;28;20180;-66
2021/12/26 04:08:06;;;;;;;3.13;1.60;;;11.10;99.90;;;;;;5043656;28;20578;-67
2021/12/26 04:10:33;;;;;;;2.50;1.50;;;11.20;99.90;;;;;;5047185;28;20576;-67
2021/12/26 04:12:59;;;;;;;2.50;1.60;;;11.20;99.90;;;;;;5033948;28;20276;-67
2021/12/26 04:15:26;;;;;;;1.87;1.67;;;11.20;99.90;;;;;;5051070;28;20655;-67
2021/12/26 04:17:56;;;;;;;1.80;1.50;;;11.20;99.90;;;;;;5048105;28;20241;-67
2021/12/26 04:20:25;;;;;;;2.20;1.77;;;11.20;99.90;;;;;;5047242;28;20247;-66
2021/12/26 04:22:53;;;;;;;2.43;1.60;;;11.20;99.90;;;;;;5050130;28;20245;-68
2021/12/26 04:25:21;;;;;;;5.60;1.60;;;11.20;99.90;;;;;;5033811;28;20184;-68
2021/12/26 04:27:48;;;;;;;2.10;1.70;;;11.20;99.90;;;;;;5047312;28;20188;-68
2021/12/26 04:30:18;;;;;;;2.67;1.70;;;11.20;99.90;;;;;;5047927;28;20194;-68
2021/12/26 04:32:44;;;;;;;2.60;1.40;;;11.20;99.90;;;;;;5037641;28;20183;-68
2021/12/26 04:35:11;;;;;;;3.10;1.87;;;11.20;99.90;;;;;;5030584;28;20313;-68
2021/12/26 04:37:38;;;;;;;3.63;1.60;;;11.20;99.90;;;;;;5048278;28;20198;-68
2021/12/26 04:40:09;;;;;;;2.70;1.53;;;11.20;99.90;;;;;;5029646;28;20191;-68
2021/12/26 04:42:37;;;;;;;2.07;1.50;;;11.20;99.90;;;;;;5029944;28;20275;-68
2021/12/26 04:45:08;;;;;;;3.57;1.50;;;11.20;99.90;;;;;;5050720;28;20719;-68
2021/12/26 04:47:36;;;;;;;4.47;1.80;;;11.20;99.90;;;;;;5050104;28;20215;-68
2021/12/26 04:50:12;;;;;;;2.63;1.60;;;11.20;99.90;;;;;;5035941;28;20215;-67
2021/12/26 04:52:41;;;;;;;2.20;1.60;;;11.20;99.90;;;;;;5055731;28;20239;-66
2021/12/26 04:55:08;;;;;;;3.00;1.87;;;11.20;99.90;;;;;;5055611;28;20226;-67
2021/12/26 04:57:35;;;;;;;3.67;1.60;;;11.10;99.90;;;;;;5048603;28;20200;-67
2021/12/26 05:00:05;;;;;;;1.50;1.40;;;11.10;99.90;;;;;;5035960;28;20200;-67
2021/12/26 05:02:35;;;;;;;3.83;1.97;;;11.10;99.90;;;;;;5051029;28;22143;-66
2021/12/26 05:05:03;;;;;;;2.60;1.50;;;11.10;99.90;;;;;;5053462;28;20270;-67
2021/12/26 05:07:30;;;;;;;3.03;1.53;;;11.10;99.90;;;;;;5031315;28;20189;-67
2021/12/26 05:09:57;;;;;;;1.73;1.50;;;11.20;99.90;;;;;;5048346;28;20279;-66
2021/12/26 05:12:24;;;;;;;3.00;1.63;;;11.20;99.90;;;;;;5029223;28;20203;-67
2021/12/26 05:14:52;;;;;;;2.20;1.80;;;11.20;99.90;;;;;;5049232;28;20195;-67
2021/12/26 05:17:18;;;;;;;2.47;1.60;;;11.20;99.90;;;;;;5035599;28;20195;-68
2021/12/26 05:19:44;;;;;;;1.87;1.50;;;11.20;99.90;;;;;;5048942;28;20188;-69
2021/12/26 05:22:11;;;;;;;2.27;1.50;;;11.20;99.90;;;;;;5039409;28;20221;-68
2021/12/26 05:24:37;;;;;;;2.20;1.27;;;11.20;99.90;;;;;;5040649;28;20686;-70
2021/12/26 05:27:04;;;;;;;4.07;1.70;;;11.20;99.90;;;;;;5047043;28;20186;-70
2021/12/26 05:29:30;;;;;;;2.57;1.60;;;11.30;99.90;;;;;;5046727;28;20228;-70
2021/12/26 05:31:56;;;;;;;1.77;1.40;;;11.30;99.90;;;;;;5033265;28;20188;-67
2021/12/26 05:34:23;;;;;;;3.00;1.80;;;11.30;99.90;;;;;;5024990;28;20191;-67
2021/12/26 05:36:49;;;;;;;4.80;1.80;;;11.30;99.90;;;;;;5050474;28;20196;-69
2021/12/26 05:39:15;;;;;;;1.90;1.60;;;11.30;99.90;;;;;;5022206;28;20195;-70
2021/12/26 05:41:42;;;;;;;6.40;2.00;;;11.40;99.90;;;;;;5045151;28;20258;-68
2021/12/26 05:44:09;;;;;;;3.43;1.90;;;11.40;99.90;;;;;;5050872;28;20214;-69
2021/12/26 05:46:37;;;;;;;2.43;1.90;;;11.40;99.90;;;;;;5031799;28;20369;-67
2021/12/26 05:49:04;;;;;;;3.70;1.70;;;11.40;99.90;;;;;;5049223;28;20188;-68
2021/12/26 05:51:32;;;;;;;1.60;1.40;;;11.40;99.90;;;;;;5048617;28;20626;-68
2021/12/26 05:53:58;;;;;;;2.07;1.60;;;11.50;99.90;;;;;;5023104;28;20210;-69
2021/12/26 05:56:24;;;;;;;2.63;1.90;;;11.50;99.90;;;;;;5046548;28;20191;-68
2021/12/26 05:58:51;;;;;;;2.50;1.60;;;11.50;99.90;;;;;;5046269;28;20191;-69
2021/12/26 06:01:17;;;;;;;2.30;1.70;;;11.50;99.90;;;;;;5041825;28;20234;-67
2021/12/26 06:03:44;;;;;;;2.33;1.80;;;11.50;99.90;;;;;;5048060;28;20190;-67
2021/12/26 06:06:10;;;;;;;5.57;2.07;;;11.50;99.90;;;;;;5037369;28;20191;-68
2021/12/26 06:08:37;;;;;;;2.00;1.77;;;11.60;99.90;;;;;;5023583;28;20282;-69
2021/12/26 06:11:03;;;;;;;3.93;1.70;;;11.60;99.90;;;;;;5044903;28;20187;-66
2021/12/26 06:13:31;;;;;;;5.20;2.10;;;11.60;99.90;;;;;;5047036;28;20190;-65
2021/12/26 06:15:58;;;;;;;2.90;1.63;;;11.70;99.90;;;;;;5035781;28;20704;-65
2021/12/26 06:18:25;;;;;;;3.73;2.10;;;11.70;99.90;;;;;;5034056;28;20955;-67
2021/12/26 06:20:51;;;;;;;2.70;1.77;;;11.80;99.90;;;;;;5048391;28;20216;-66
2021/12/26 06:23:18;;;;;;;1.97;1.70;;;11.80;99.90;;;;;;5039157;28;20192;-66
2021/12/26 06:25:44;;;;;;;6.20;1.83;;;11.90;99.90;;;;;;5032628;28;20200;-64
2021/12/26 06:28:10;;;;;;;3.33;2.00;;;11.90;99.90;;;;;;5051538;28;20268;-65
2021/12/26 06:30:37;;;;;;;2.17;1.90;;;11.90;99.90;;;;;;5031628;28;20195;-66
2021/12/26 06:33:04;;;;;;;3.43;2.07;;;11.90;99.90;;;;;;5034132;28;20667;-66
2021/12/26 06:35:30;;;;;;;3.87;2.10;;;12.00;99.90;;;;;;5050371;28;20188;-67
2021/12/26 06:37:58;;;;;;;2.67;1.90;;;12.00;99.90;;;;;;5055720;28;20195;-67
2021/12/26 06:40:24;;;;;;;3.00;1.93;;;12.00;99.90;;;;;;5034383;28;20188;-67
2021/12/26 06:42:50;;;;;;;4.40;2.10;;;12.00;99.90;;;;;;5031204;28;21981;-70
2021/12/26 06:45:18;;;;;;;3.57;2.07;;;12.00;99.90;;;;;;5042597;28;20249;-69
2021/12/26 06:47:50;;;;;;;2.83;1.87;;;12.00;99.90;;;;;;5049571;28;20184;-67
2021/12/26 06:50:21;;;;;;;5.07;2.07;;;12.00;99.90;;;;;;5030428;28;20660;-67
2021/12/26 06:52:49;;;;;;;2.10;1.90;;;12.00;99.90;;;;;;5034227;28;20188;-67
2021/12/26 06:55:15;;;;;;;4.57;2.07;;;12.10;99.90;;;;;;5028886;28;20200;-67
2021/12/26 06:57:43;;;;;;;4.40;2.33;;;12.10;99.90;;;;;;5031771;28;20185;-68
2021/12/26 07:00:15;;;;;;;2.30;2.10;;;12.10;99.90;;;;;;5038656;28;20188;-69
2021/12/26 07:02:42;;;;;;;2.60;1.97;;;12.10;99.90;;;;;;5051890;28;20191;-68
2021/12/26 07:05:14;;;;;;;6.50;2.50;;;12.10;99.90;;;;;;5026163;28;20196;-69
2021/12/26 07:07:42;;;;;;;4.03;1.97;;;12.10;99.90;;;;;;5046064;28;20191;-67
2021/12/26 07:10:10;;;;;;;3.50;2.33;;;12.10;99.90;;;;;;5027770;28;20184;-68
2021/12/26 07:12:36;;;;;;;4.20;2.37;;;12.10;99.90;;;;;;5017472;28;20204;-67
2021/12/26 07:15:04;;;;;;;4.07;2.17;;;12.10;99.90;;;;;;5032371;28;20909;-67
2021/12/26 07:17:30;;;;;;;2.60;1.80;;;12.20;99.90;;;;;;5049104;28;20208;-66
2021/12/26 07:19:56;;;;;;;3.70;2.23;;;12.20;99.90;;;;;;5032175;28;20662;-66
2021/12/26 07:22:23;;;;;;;4.97;1.97;;;12.20;99.90;;;;;;5025979;28;20208;-66
2021/12/26 07:24:49;;;;;;;4.30;2.17;;;12.20;99.90;;;;;;5033000;28;20533;-65
2021/12/26 07:27:16;;;;;;;5.80;2.33;;;12.20;99.90;;;;;;5038108;28;20632;-65
2021/12/26 07:29:43;;;;;;;4.90;2.57;;;12.20;99.90;;;;;;5029167;28;20616;-65
2021/12/26 07:32:11;;;;;;;2.10;1.90;;;12.20;99.90;;;;;;5034176;28;20202;-66
2021/12/26 07:34:39;;;;;;;4.10;2.10;;;12.20;99.90;;;;;;5051259;28;20207;-66
2021/12/26 07:37:07;;;;;;;3.80;2.70;;;12.20;99.90;;;;;;5048812;28;20929;-66
2021/12/26 07:39:35;;;;;;;5.27;2.30;;;12.20;99.90;;;;;;5018504;28;20283;-66
2021/12/26 07:42:02;;;;;;;3.57;2.80;;;12.20;99.90;;;;;;5051045;28;20302;-66
2021/12/26 07:44:28;;;;;;;3.40;1.90;;;12.20;99.90;;;;;;5044288;28;22050;-65
2021/12/26 07:46:54;;;;;;;4.17;2.37;;;12.20;99.90;;;;;;5045523;28;20190;-65
2021/12/26 07:49:22;;;;;;;4.00;2.63;;;12.20;99.90;;;;;;5029366;28;20544;-66
2021/12/26 07:51:50;;;;;;;5.07;3.00;;;12.10;99.90;;;;;;5041697;28;20194;-66
2021/12/26 07:54:18;;;;;;;3.47;2.67;;;12.10;99.90;;;;;;5049463;28;20207;-64
2021/12/26 07:56:45;;;;;;;2.80;2.60;;;12.10;99.90;;;;;;5035311;28;20180;-66
2021/12/26 07:59:11;;;;;;;3.30;2.47;;;12.20;99.90;;;;;;5047112;28;20868;-64
2021/12/26 08:01:38;;;;;;;4.10;2.50;;;12.20;99.90;;;;;;5049295;28;20204;-66
2021/12/26 08:04:05;;;;;;;3.97;2.40;;;12.20;99.90;;;;;;5054565;28;20198;-66
2021/12/26 08:06:32;;;;;;;4.53;3.03;;;12.30;99.90;;;;;;5035098;28;20579;-65
2021/12/26 08:08:58;;;;;;;3.27;2.87;;;12.30;99.90;;;;;;5054811;28;20196;-67
2021/12/26 08:11:25;;;;;;;4.47;3.60;;;12.40;99.90;;;;;;5038817;28;20929;-69
2021/12/26 08:13:52;;;;;;;4.23;3.83;;;12.40;99.90;;;;;;5028813;28;20222;-68
2021/12/26 08:16:18;;;;;;;3.97;3.47;;;12.40;99.90;;;;;;5050901;28;20240;-67
2021/12/26 08:18:45;;;;;;;8.47;4.37;;;12.40;99.90;;;;;;5054084;28;20192;-67
2021/12/26 08:21:11;;;;;;;5.50;4.20;;;12.50;99.90;;;;;;5037728;28;20294;-64
2021/12/26 08:23:37;;;;;;;4.57;4.17;;;12.50;99.90;;;;;;5048137;28;20202;-67
2021/12/26 08:26:04;;;;;;;3.90;3.47;;;12.50;99.90;;;;;;5034656;28;20711;-66
2021/12/26 08:28:31;;;;;;;4.43;3.97;;;12.50;99.90;;;;;;5033293;28;20563;-65
2021/12/26 08:30:57;;;;;;;5.10;4.00;;;12.50;99.90;;;;;;5036908;28;20653;-66
2021/12/26 08:33:24;;;;;;;8.00;4.60;;;12.50;99.90;;;;;;5030124;28;20233;-67
2021/12/26 08:35:51;;;;;;;8.23;5.50;;;12.60;99.90;;;;;;5049439;28;20264;-69
2021/12/26 08:38:21;;;;;;;8.40;5.80;;;12.60;99.90;;;;;;5046820;28;20192;-66
2021/12/26 08:40:51;;;;;;;9.13;6.60;;;12.60;99.90;;;;;;5038202;28;20207;-65
2021/12/26 08:43:19;;;;;;;9.33;6.87;;;12.60;99.90;;;;;;5018525;28;20641;-67
2021/12/26 08:45:46;;;;;;;8.97;7.83;;;12.60;99.90;;;;;;5029824;28;20258;-67
2021/12/26 08:48:13;;;;;;;9.03;8.03;;;12.50;99.90;;;;;;5031243;28;20176;-68
2021/12/26 08:50:40;;;;;;;8.53;6.97;;;12.50;99.90;;;;;;5046385;28;20188;-67
2021/12/26 08:53:09;;;;;;;9.40;6.97;;;12.50;99.90;;;;;;5034701;28;20183;-66
2021/12/26 08:55:37;;;;;;;8.33;6.80;;;12.50;99.90;;;;;;5035036;28;20275;-67
2021/12/26 08:58:07;;;;;;;8.97;7.20;;;12.50;99.90;;;;;;5030231;28;20204;-66
2021/12/26 09:00:36;;;;;;;7.90;7.00;;;12.40;99.90;;;;;;5032344;28;20195;-67
2021/12/26 09:03:02;;;;;;;8.43;7.40;;;12.40;99.90;;;;;;5032700;28;20195;-67
2021/12/26 09:05:29;;;;;;;7.70;6.90;;;12.30;99.90;;;;;;5044747;28;20195;-67
2021/12/26 09:07:55;;;;;;;9.40;6.90;;;12.40;99.90;;;;;;5035452;28;20185;-66
2021/12/26 09:10:22;;;;;;;10.30;7.10;;;12.30;99.90;;;;;;5029874;28;20231;-68
2021/12/26 09:12:48;;;;;;;9.10;6.90;;;12.30;99.90;;;;;;5046187;28;20183;-65
2021/12/26 09:15:15;;;;;;;10.70;6.50;;;12.30;99.90;;;;;;5045470;28;20315;-65
2021/12/26 09:17:43;;;;;;;7.47;6.73;;;12.30;99.90;;;;;;5028781;28;20184;-66
2021/12/26 09:20:10;;;;;;;7.90;7.10;;;12.30;99.90;;;;;;5032174;28;20295;-64
2021/12/26 09:22:40;;;;;;;9.83;8.40;;;12.30;99.90;;;;;;5030541;28;20212;-65
2021/12/26 09:25:07;;;;;;;9.37;8.37;;;12.30;99.90;;;;;;5031563;28;20172;-68
2021/12/26 09:27:34;;;;;;;10.10;8.33;;;12.40;99.90;;;;;;5050843;28;20195;-66
2021/12/26 09:30:00;;;;;;;10.13;7.97;;;12.40;99.90;;;;;;5032284;28;20823;-68
2021/12/26 09:32:26;;;;;;;9.80;8.63;;;12.40;99.90;;;;;;5033082;28;20188;-66
2021/12/26 09:34:53;;;;;;;11.30;9.13;;;12.40;99.90;;;;;;5051934;28;20192;-67
2021/12/26 09:37:19;;;;;;;9.87;8.93;;;12.40;99.90;;;;;;5039473;28;20185;-66
2021/12/26 09:39:45;;;;;;;12.60;9.33;;;12.50;99.90;;;;;;5046938;28;20279;-69
2021/12/26 09:42:12;;;;;;;10.23;8.90;;;12.50;99.90;;;;;;5048079;28;20349;-67
2021/12/26 09:44:39;;;;;;;9.97;8.93;;;12.50;99.90;;;;;;5047605;28;20188;-66
2021/12/26 09:47:07;;;;;;;10.30;9.17;;;12.50;99.90;;;;;;5029454;28;20249;-69
2021/12/26 09:49:33;;;;;;;10.17;8.93;;;12.40;99.90;;;;;;5031600;28;20745;-67
2021/12/26 09:52:00;;;;;;;11.50;9.03;;;12.50;99.90;;;;;;5048428;28;20199;-67
2021/12/26 09:54:26;;;;;;;9.73;8.73;;;12.50;99.90;;;;;;5049711;28;20210;-66
2021/12/26 09:56:53;;;;;;;9.80;8.80;;;12.40;99.90;;;;;;5046389;28;20187;-67
2021/12/26 09:59:22;;;;;;;11.90;9.80;;;12.50;99.90;;;;;;5045004;28;20181;-66
2021/12/26 10:01:53;;;;;;;11.57;8.80;;;12.50;99.90;;;;;;5034840;28;20635;-65
2021/12/26 10:04:31;;;;;;;12.13;9.97;;;12.50;99.90;;;;;;5029180;28;20179;-69
2021/12/26 10:07:05;;;;;;;12.17;9.63;;;12.50;99.90;;;;;;5050087;28;20655;-68
2021/12/26 10:09:36;;;;;;;10.23;8.73;;;12.50;99.90;;;;;;5050072;28;20183;-67
2021/12/26 10:12:04;;;;;;;10.73;8.73;;;12.50;99.90;;;;;;5029919;28;20189;-67
2021/12/26 10:14:34;;;;;;;11.27;8.70;;;12.50;99.90;;;;;;5035847;28;20184;-68
2021/12/26 10:17:07;;;;;;;12.10;9.87;;;12.50;99.90;;;;;;5045988;28;20199;-67
2021/12/26 10:19:46;;;;;;;11.50;9.27;;;12.50;99.90;;;;;;5028701;28;20192;-68
2021/12/26 10:22:17;;;;;;;13.73;9.30;;;12.50;99.90;;;;;;5028602;28;20212;-68
2021/12/26 10:24:51;;;;;;;12.97;8.13;;;12.40;99.90;;;;;;5051088;28;20173;-69
2021/12/26 10:27:32;;;;;;;8.60;7.73;;;12.30;99.90;;;;;;5029651;28;20181;-66
2021/12/26 10:30:03;;;;;;;10.70;7.97;;;12.30;99.90;;;;;;5042897;28;20214;-67
2021/12/26 10:32:33;;;;;;;9.47;7.97;;;12.30;99.90;;;;;;5038274;28;20195;-69
2021/12/26 10:35:06;;;;;;;9.63;8.63;;;12.20;99.90;;;;;;5047331;28;20202;-70
2021/12/26 10:37:45;;;;;;;11.40;9.20;;;12.20;99.90;;;;;;5049229;28;20186;-70
2021/12/26 10:40:28;;;;;;;10.43;8.87;;;12.20;99.90;;;;;;5053675;28;20277;-70
2021/12/26 10:42:58;;;;;;;9.57;8.67;;;12.20;99.90;;;;;;5054975;28;20705;-70
2021/12/26 10:45:33;;;;;;;7.30;6.60;;;12.20;99.90;;;;;;5054966;28;20187;-70
2021/12/26 10:48:03;;;;;;;5.93;5.17;;;12.20;99.90;;;;;;5052784;28;20230;-70
2021/12/26 10:50:34;;;;;;;5.40;3.60;;;12.10;99.90;;;;;;5046694;28;20241;-70
2021/12/26 10:53:07;;;;;;;3.53;3.23;;;12.10;99.90;;;;;;5046918;28;20232;-70
2021/12/26 10:55:41;;;;;;;4.00;3.37;;;12.10;99.90;;;;;;5052714;28;20190;-70
2021/12/26 10:58:12;;;;;;;3.53;3.13;;;12.00;99.90;;;;;;5073276;28;20183;-70
2021/12/26 11:00:49;;;;;;;3.00;2.70;;;12.00;99.90;;;;;;5052491;28;20298;-70
2021/12/26 11:03:22;;;;;;;2.77;2.50;;;12.00;99.90;;;;;;5048960;28;20281;-70
2021/12/26 11:05:53;;;;;;;3.40;3.10;;;12.00;99.90;;;;;;5049796;28;20187;-70
2021/12/26 11:08:36;;;;;;;6.37;3.90;;;11.90;99.90;;;;;;5042516;28;20195;-69
2021/12/26 11:11:16;;;;;;;4.00;3.70;;;11.90;99.90;;;;;;5048854;28;20187;-70
2021/12/26 11:13:43;;;;;;;2.80;2.50;;;11.90;99.90;;;;;;5065131;28;20187;-70
2021/12/26 11:16:12;;;;;;;2.07;1.87;;;11.90;99.90;;;;;;5037265;28;20817;-69
2021/12/26 11:18:39;;;;;;;1.70;1.57;;;11.90;99.90;;;;;;5047545;28;20191;-69
2021/12/26 11:21:13;;;;;;;2.37;1.87;;;11.90;99.90;;;;;;5053666;28;20207;-69
2021/12/26 11:23:43;;;;;;;1.90;1.80;;;11.90;99.90;;;;;;5027395;28;20951;-70
2021/12/26 11:26:19;;;;;;;2.20;1.70;;;11.90;99.90;;;;;;5047126;28;20690;-69
2021/12/26 11:28:53;;;;;;;3.73;2.47;;;11.80;99.90;;;;;;5046664;28;20213;-69
2021/12/26 11:31:24;;;;;;;3.30;2.43;;;11.90;99.90;;;;;;5049279;28;20199;-69
2021/12/26 11:33:56;;;;;;;4.23;2.97;;;11.90;99.90;;;;;;5067707;28;20221;-69
2021/12/26 11:36:25;;;;;;;4.27;2.70;;;11.80;99.90;;;;;;5037814;28;20683;-70
2021/12/26 11:38:55;;;;;;;4.63;2.83;;;11.90;99.90;;;;;;5065381;28;20674;-70
2021/12/26 11:41:40;;;;;;;4.00;3.20;;;11.90;99.90;;;;;;5059495;28;20388;-69
2021/12/26 11:44:53;;;;;;;3.80;3.03;;;11.90;99.90;;;;;;5048667;28;20222;-70
2021/12/26 11:48:23;;;;;;;3.30;2.87;;;11.90;99.90;;;;;;5055671;28;20279;-70
2021/12/26 11:51:38;;;;;;;3.07;2.77;;;11.80;99.90;;;;;;5033736;28;20668;-70
2021/12/26 11:54:54;;;;;;;3.27;2.87;;;11.80;99.90;;;;;;5039428;28;20192;-69
2021/12/26 11:57:54;;;;;;;2.90;2.17;;;11.80;99.90;;;;;;5041262;28;20253;-70
2021/12/26 12:00:30;;;;;;;3.23;2.20;;;11.90;99.90;;;;;;5046706;28;20699;-69
2021/12/26 12:03:18;;;;;;;2.60;2.30;;;11.90;99.90;;;;;;5066410;28;20501;-69
2021/12/26 12:05:45;;;;;;;2.40;2.20;;;11.90;99.90;;;;;;5052392;28;20228;-70
2021/12/26 12:08:35;;;;;;;2.50;1.97;;;11.90;99.90;;;;;;5044532;28;20180;-69
2021/12/26 12:11:10;;;;;;;3.97;1.93;;;11.90;99.90;;;;;;5046128;28;20188;-69
2021/12/26 12:13:44;;;;;;;2.10;1.90;;;11.90;99.90;;;;;;5043708;28;20199;-70
2021/12/26 12:16:31;;;;;;;2.30;1.97;;;12.00;99.90;;;;;;5067279;28;20187;-70
2021/12/26 12:19:04;;;;;;;2.10;1.93;;;12.00;99.90;;;;;;5059196;28;20738;-69
2021/12/26 12:21:46;;;;;;;3.23;2.10;;;12.00;99.90;;;;;;5051771;28;20216;-70
2021/12/26 12:24:26;;;;;;;3.10;2.30;;;12.00;99.90;;;;;;5044256;28;20277;-70
2021/12/26 12:27:09;;;;;;;2.30;2.10;;;11.90;99.90;;;;;;5047801;28;20226;-69
2021/12/26 12:29:52;;;;;;;2.30;2.10;;;11.90;99.90;;;;;;5047513;28;20206;-70
2021/12/26 12:32:26;;;;;;;5.60;2.40;;;11.80;99.90;;;;;;5050214;28;20190;-69
2021/12/26 12:35:08;;;;;;;2.33;1.97;;;11.80;99.90;;;;;;5046598;28;20191;-69
2021/12/26 12:37:46;;;;;;;2.43;1.90;;;11.80;99.90;;;;;;5052199;28;20190;-70
2021/12/26 12:40:33;;;;;;;2.43;2.10;;;11.80;99.90;;;;;;5041639;28;20639;-70
2021/12/26 12:43:15;;;;;;;3.23;1.93;;;11.80;99.90;;;;;;5062083;28;20268;-69
2021/12/26 12:46:05;;;;;;;3.27;1.80;;;11.90;99.90;;;;;;5039350;28;20175;-70
2021/12/26 12:48:49;;;;;;;2.10;1.90;;;11.90;99.90;;;;;;5056007;28;20180;-70
2021/12/26 12:51:15;;;;;;;2.20;1.70;;;11.90;99.90;;;;;;5035058;28;20222;-69
2021/12/26 12:53:50;;;;;;;1.60;1.50;;;11.80;99.90;;;;;;5046968;28;20203;-69
2021/12/26 12:56:44;;;;;;;1.90;1.50;;;11.80;99.90;;;;;;5047398;28;20281;-69
2021/12/26 12:59:17;;;;;;;3.00;1.80;;;11.80;99.90;;;;;;5061443;28;20180;-70
2021/12/26 13:01:55;;;;;;;1.93;1.73;;;11.90;99.90;;;;;;5048971;28;20210;-70
2021/12/26 13:04:28;;;;;;;2.10;1.87;;;11.90;99.90;;;;;;5065871;28;20599;-69